Time;durP1;ratioP1;P1;durP2;ratioP2;P2;SDS_P1;SDS_P2;PMS_P1;PMS_P2;Temp;Humidity;BMP_temperature;BMP_pressure;BME280_temperature;BME280_humidity;BME280_pressure;Samples;Min_cycle;Max_cycle;Signal;HPM_P1;HPM_P2
2021/10/31 00:00:06;;;;;;;;;;;;;;;19.07;68.65;99090.38;2080712;28;19976;-60
2021/10/31 00:01:08;;;;;;;;;;;;;;;19.06;68.63;99083.22;2080867;28;19920;-60
2021/10/31 00:02:09;;;;;;;;;;;;;;;19.06;68.61;99091.41;2077398;28;19917;-60
2021/10/31 00:03:10;;;;;;;;;;;;;;;19.06;68.63;99092.25;2081588;28;19916;-59
2021/10/31 00:04:10;;;;;;;;;;;;;;;19.06;68.66;99096.88;2080378;28;20393;-60
2021/10/31 00:05:11;;;;;;;;;;;;;;;19.06;68.68;99096.88;2082585;28;19920;-61
2021/10/31 00:06:11;;;;;;;;;;;;;;;19.07;68.62;99093.09;2082358;28;20058;-60
2021/10/31 00:07:11;;;;;;;;;;;;;;;19.06;68.64;99096.88;2082417;28;19927;-60
2021/10/31 00:08:12;;;;;;;;;;;;;;;19.08;68.62;99102.16;2084029;28;20041;-60
2021/10/31 00:09:12;;;;;;;;;;;;;;;19.06;68.61;99096.88;2079924;28;20768;-60
2021/10/31 00:10:12;;;;;;;;;;;;;;;19.06;68.63;99100.44;2082856;28;19979;-61
2021/10/31 00:11:13;;;;;;;;;;;;;;;19.06;68.68;99096.88;2082740;28;20554;-60
2021/10/31 00:12:15;;;;;;;;;;;;;;;19.06;68.60;99088.69;2076500;28;21420;-60
2021/10/31 00:13:16;;;;;;;;;;;;;;;19.06;68.56;99085.94;2083531;28;19946;-60
2021/10/31 00:14:16;;;;;;;;;;;;;;;19.05;68.60;99081.50;2078995;28;19924;-60
2021/10/31 00:15:17;;;;;;;;;;;;;;;19.05;68.55;99074.16;2083330;28;20778;-60
2021/10/31 00:16:17;;;;;;;;;;;;;;;19.05;68.53;99079.59;2083018;28;19920;-60
2021/10/31 00:17:19;;;;;;;;;;;;;;;19.05;68.52;99067.84;2081847;28;20744;-60
2021/10/31 00:18:19;;;;;;;;;;;;;;;19.05;68.58;99070.56;2084218;28;20101;-60
2021/10/31 00:19:20;;;;;;;;;;;;;;;19.04;68.52;99069.72;2082190;28;19924;-60
2021/10/31 00:20:20;;;;;;;;;;;;;;;19.04;68.58;99066.16;2082605;28;19927;-60
2021/10/31 00:21:22;;;;;;;;;;;;;;;19.05;68.53;99073.31;2082184;28;19927;-59
2021/10/31 00:22:22;;;;;;;;;;;;;;;19.04;68.49;99064.25;2080505;28;19921;-60
2021/10/31 00:23:23;;;;;;;;;;;;;;;19.04;68.55;99060.69;2084824;28;19920;-59
2021/10/31 00:24:24;;;;;;;;;;;;;;;19.05;68.49;99056.91;2081659;28;19956;-60
2021/10/31 00:25:24;;;;;;;;;;;;;;;19.04;68.51;99053.34;2082130;28;20097;-60
2021/10/31 00:26:24;;;;;;;;;;;;;;;19.04;68.52;99045.16;2082437;28;19915;-60
2021/10/31 00:27:25;;;;;;;;;;;;;;;19.04;68.53;99047.03;2084771;28;19927;-59
2021/10/31 00:28:25;;;;;;;;;;;;;;;19.04;68.51;99047.03;2083869;28;19920;-60
2021/10/31 00:29:25;;;;;;;;;;;;;;;19.05;68.48;99051.44;2072137;28;20119;-60
2021/10/31 00:30:26;;;;;;;;;;;;;;;19.04;68.46;99044.28;2074016;28;19929;-60
2021/10/31 00:31:26;;;;;;;;;;;;;;;19.04;68.58;99036.09;2082779;28;20003;-60
2021/10/31 00:32:26;;;;;;;;;;;;;;;19.03;68.45;99038.00;2082137;28;20339;-60
2021/10/31 00:33:27;;;;;;;;;;;;;;;19.03;68.50;99035.25;2082583;28;19920;-60
2021/10/31 00:34:27;;;;;;;;;;;;;;;19.04;68.50;99033.38;2086319;28;19920;-58
2021/10/31 00:35:27;;;;;;;;;;;;;;;19.03;68.51;99032.53;2092107;28;19959;-59
2021/10/31 00:36:28;;;;;;;;;;;;;;;19.03;68.46;99027.06;2092468;28;19928;-59
2021/10/31 00:37:28;;;;;;;;;;;;;;;19.04;68.46;99022.44;2082510;28;20493;-66
2021/10/31 00:38:28;;;;;;;;;;;;;;;19.02;68.41;99014.41;2085434;28;19920;-66
2021/10/31 00:39:29;;;;;;;;;;;;;;;19.03;68.43;99009.81;2083855;28;19934;-66
2021/10/31 00:40:31;;;;;;;;;;;;;;;19.03;68.35;99015.25;2085712;28;19919;-66
2021/10/31 00:41:32;;;;;;;;;;;;;;;19.03;68.39;99009.81;2085281;28;19923;-66
2021/10/31 00:42:33;;;;;;;;;;;;;;;19.03;68.45;99015.25;2086045;28;19920;-65
2021/10/31 00:43:33;;;;;;;;;;;;;;;19.03;68.42;99023.47;2077035;28;19920;-65
2021/10/31 00:44:33;;;;;;;;;;;;;;;19.03;68.42;99009.81;2077515;28;19923;-60
2021/10/31 00:45:34;;;;;;;;;;;;;;;19.03;68.45;99015.25;2085461;28;20031;-60
2021/10/31 00:46:34;;;;;;;;;;;;;;;19.03;68.44;99020.72;2088657;28;19952;-60
2021/10/31 00:47:34;;;;;;;;;;;;;;;19.03;68.35;99015.25;2083804;28;20748;-60
2021/10/31 00:48:35;;;;;;;;;;;;;;;19.02;68.39;99017.16;2085275;28;20355;-60
2021/10/31 00:49:35;;;;;;;;;;;;;;;19.03;68.34;99023.47;2084619;28;19916;-60
2021/10/31 00:50:36;;;;;;;;;;;;;;;19.02;68.37;99016.31;2086420;28;20154;-60
2021/10/31 00:51:37;;;;;;;;;;;;;;;19.02;68.39;99014.41;2084200;28;20450;-60
2021/10/31 00:52:37;;;;;;;;;;;;;;;19.02;68.37;99013.56;2086136;28;19917;-60
2021/10/31 00:53:39;;;;;;;;;;;;;;;19.02;68.38;99014.41;2081516;28;19962;-60
2021/10/31 00:54:39;;;;;;;;;;;;;;;19.02;68.43;99021.75;2084220;28;19931;-60
2021/10/31 00:55:40;;;;;;;;;;;;;;;19.02;68.37;99021.75;2085704;28;19948;-60
2021/10/31 00:56:40;;;;;;;;;;;;;;;19.03;68.30;99018.00;2082563;28;19921;-60
2021/10/31 00:57:41;;;;;;;;;;;;;;;19.02;68.25;99019.03;2086583;28;20275;-60
2021/10/31 00:58:41;;;;;;;;;;;;;;;19.01;68.37;99020.03;2076864;28;20047;-60
2021/10/31 00:59:41;;;;;;;;;;;;;;;19.02;68.37;99019.03;2075439;28;19987;-60
2021/10/31 01:00:42;;;;;;;;;;;;;;;19.02;68.26;99021.75;2087187;28;19935;-60
2021/10/31 01:01:43;;;;;;;;;;;;;;;19.02;68.35;99019.03;2084616;28;19920;-60
2021/10/31 01:02:43;;;;;;;;;;;;;;;19.01;68.33;99020.03;2086121;28;19925;-60
2021/10/31 01:03:45;;;;;;;;;;;;;;;19.00;68.32;99004.69;2084509;28;19920;-60
2021/10/31 01:04:47;;;;;;;;;;;;;;;19.01;68.30;99017.31;2084078;28;19994;-59
2021/10/31 01:05:50;;;;;;;;;;;;;;;19.02;68.33;99010.84;2085702;28;20549;-60
2021/10/31 01:06:51;;;;;;;;;;;;;;;19.02;68.30;99008.09;2084626;28;19973;-59
2021/10/31 01:08:09;;;;;;;;;;;;;;;19.01;68.23;99006.38;2083718;28;19973;-60
2021/10/31 01:09:19;;;;;;;;;;;;;;;19.01;68.19;99011.84;2086064;28;19950;-60
2021/10/31 01:10:38;;;;;;;;;;;;;;;19.01;68.28;99006.38;2084793;28;19986;-60
2021/10/31 01:11:38;;;;;;;;;;;;;;;19.01;68.20;99012.72;2081930;28;20009;-60
2021/10/31 01:12:48;;;;;;;;;;;;;;;19.00;68.15;98999.22;2085989;28;19993;-60
2021/10/31 01:13:56;;;;;;;;;;;;;;;19.01;68.28;99011.84;2085175;28;19986;-60
2021/10/31 01:15:15;;;;;;;;;;;;;;;19.00;68.21;99005.53;2081206;28;20636;-60
2021/10/31 01:16:34;;;;;;;;;;;;;;;19.00;68.17;99005.53;2082864;28;19920;-61
2021/10/31 01:17:55;;;;;;;;;;;;;;;19.00;68.22;99005.53;2086546;28;19970;-60
2021/10/31 01:19:02;;;;;;;;;;;;;;;18.99;68.17;99003.84;2083569;28;20410;-60
2021/10/31 01:20:06;;;;;;;;;;;;;;;19.00;68.21;98994.63;2085438;28;20661;-61
2021/10/31 01:21:12;;;;;;;;;;;;;;;19.01;68.18;98995.47;2084942;28;19962;-60
2021/10/31 01:22:31;;;;;;;;;;;;;;;19.00;68.13;98993.78;2085843;28;19924;-60
2021/10/31 01:23:50;;;;;;;;;;;;;;;18.99;68.21;98981.16;2086620;28;20070;-60
2021/10/31 01:24:59;;;;;;;;;;;;;;;18.99;68.12;98997.53;2081671;28;19913;-61
2021/10/31 01:26:11;;;;;;;;;;;;;;;18.99;68.18;98992.94;2083473;28;19959;-61
2021/10/31 01:27:30;;;;;;;;;;;;;;;19.00;68.21;98993.78;2083742;28;20382;-61
2021/10/31 01:28:48;;;;;;;;;;;;;;;18.99;68.14;98992.09;2083746;28;19920;-61
2021/10/31 01:29:49;;;;;;;;;;;;;;;18.99;68.18;98989.34;2084404;28;19920;-61
2021/10/31 01:30:49;;;;;;;;;;;;;;;19.00;68.11;98996.50;2085074;28;19925;-60
2021/10/31 01:31:50;;;;;;;;;;;;;;;18.99;68.16;98990.19;2085336;28;20387;-61
2021/10/31 01:33:02;;;;;;;;;;;;;;;18.99;68.15;98986.63;2084959;28;19916;-61
2021/10/31 01:34:18;;;;;;;;;;;;;;;18.99;68.14;98986.63;2082198;28;20391;-61
2021/10/31 01:35:37;;;;;;;;;;;;;;;19.00;68.13;98982.84;2083646;28;20455;-61
2021/10/31 01:37:01;;;;;;;;;;;;;;;18.99;68.17;98972.97;2085101;28;19939;-61
2021/10/31 01:38:09;;;;;;;;;;;;;;;18.99;68.11;98970.22;2075193;28;19916;-61
2021/10/31 01:39:19;;;;;;;;;;;;;;;18.99;68.13;98967.50;2083579;28;20338;-61
2021/10/31 01:40:25;;;;;;;;;;;;;;;18.98;68.10;98965.78;2084763;28;19928;-61
2021/10/31 01:41:35;;;;;;;;;;;;;;;18.99;68.00;98968.34;2083141;28;20466;-61
2021/10/31 01:42:54;;;;;;;;;;;;;;;18.97;68.10;98966.81;2085194;28;19924;-61
2021/10/31 01:44:05;;;;;;;;;;;;;;;18.99;68.12;98970.22;2083979;28;20054;-61
2021/10/31 01:45:20;;;;;;;;;;;;;;;18.98;68.03;98969.34;2082695;28;20590;-61
2021/10/31 01:46:33;;;;;;;;;;;;;;;18.98;68.01;98972.09;2084725;28;19928;-61
2021/10/31 01:47:43;;;;;;;;;;;;;;;18.99;68.02;98970.22;2085614;28;20226;-60
2021/10/31 01:48:51;;;;;;;;;;;;;;;18.98;68.05;98974.81;2082999;28;19920;-61
2021/10/31 01:49:56;;;;;;;;;;;;;;;18.98;68.09;98973.97;2080831;28;19931;-60
2021/10/31 01:51:00;;;;;;;;;;;;;;;18.98;68.01;98968.50;2084112;28;20574;-60
2021/10/31 01:52:03;;;;;;;;;;;;;;;18.98;67.95;98963.06;2083990;28;19963;-60
2021/10/31 01:53:07;;;;;;;;;;;;;;;18.98;67.98;98968.50;2072302;28;20667;-61
2021/10/31 01:54:12;;;;;;;;;;;;;;;18.96;68.00;98968.72;2073659;28;21029;-61
2021/10/31 01:55:14;;;;;;;;;;;;;;;18.98;67.99;98963.06;2082725;28;19927;-61
2021/10/31 01:56:16;;;;;;;;;;;;;;;18.98;68.05;98968.50;2081173;28;19928;-61
2021/10/31 01:57:18;;;;;;;;;;;;;;;18.98;68.00;98965.78;2075460;28;20004;-61
2021/10/31 01:58:20;;;;;;;;;;;;;;;18.97;68.00;98964.94;2087244;28;19920;-61
2021/10/31 01:59:23;;;;;;;;;;;;;;;18.97;68.06;98962.22;2079451;28;20614;-61
2021/10/31 02:00:24;;;;;;;;;;;;;;;18.97;68.02;98964.09;2079520;28;19920;-61
2021/10/31 02:01:26;;;;;;;;;;;;;;;18.97;67.94;98964.94;2084379;28;19916;-61
2021/10/31 02:02:29;;;;;;;;;;;;;;;18.98;67.92;98961.16;2083133;28;19917;-61
2021/10/31 02:03:31;;;;;;;;;;;;;;;18.96;67.99;98965.09;2080773;28;19917;-61
2021/10/31 02:04:33;;;;;;;;;;;;;;;18.98;68.09;98968.50;2084516;28;19920;-61
2021/10/31 02:05:36;;;;;;;;;;;;;;;18.97;67.99;98961.38;2082619;28;20620;-61
2021/10/31 02:06:47;;;;;;;;;;;;;;;18.97;68.02;98964.09;2081333;28;19925;-61
2021/10/31 02:07:52;;;;;;;;;;;;;;;18.97;68.00;98962.22;2080862;28;20257;-61
2021/10/31 02:08:54;;;;;;;;;;;;;;;18.97;68.01;98961.38;2084260;28;19995;-61
2021/10/31 02:09:55;;;;;;;;;;;;;;;18.98;67.95;98963.91;2083054;28;19923;-61
2021/10/31 02:10:57;;;;;;;;;;;;;;;18.97;67.94;98964.09;2083536;28;19924;-61
2021/10/31 02:11:59;;;;;;;;;;;;;;;18.96;67.92;98956.91;2082604;28;19928;-61
2021/10/31 02:13:01;;;;;;;;;;;;;;;18.96;67.86;98959.63;2083568;28;19973;-61
2021/10/31 02:14:02;;;;;;;;;;;;;;;18.97;67.98;98961.38;2083812;28;20445;-61
2021/10/31 02:15:04;;;;;;;;;;;;;;;18.97;67.85;98961.38;2084969;28;19916;-61
2021/10/31 02:16:05;;;;;;;;;;;;;;;18.96;67.94;98965.97;2082745;28;20479;-61
2021/10/31 02:17:05;;;;;;;;;;;;;;;18.97;67.98;98958.63;2072757;28;20342;-61
2021/10/31 02:18:06;;;;;;;;;;;;;;;18.96;67.88;98960.53;2074869;28;20869;-60
2021/10/31 02:19:08;;;;;;;;;;;;;;;18.97;67.88;98955.91;2084920;28;20819;-61
2021/10/31 02:20:09;;;;;;;;;;;;;;;18.96;68.00;98959.63;2079934;28;19924;-61
2021/10/31 02:21:10;;;;;;;;;;;;;;;18.96;67.85;98959.63;2084952;28;19917;-61
2021/10/31 02:22:29;;;;;;;;;;;;;;;18.95;67.94;98957.94;2081556;28;19921;-60
2021/10/31 02:23:30;;;;;;;;;;;;;;;18.96;68.00;98954.19;2078726;28;19924;-61
2021/10/31 02:24:30;;;;;;;;;;;;;;;18.96;67.91;98959.63;2083088;28;20489;-60
2021/10/31 02:25:31;;;;;;;;;;;;;;;18.95;67.92;98957.94;2083834;28;19912;-61
2021/10/31 02:26:31;;;;;;;;;;;;;;;18.95;67.79;98958.78;2079907;28;20318;-61
2021/10/31 02:27:33;;;;;;;;;;;;;;;18.95;67.88;98952.50;2083892;28;20569;-61
2021/10/31 02:28:36;;;;;;;;;;;;;;;18.95;67.88;98952.50;2082130;28;19912;-61
2021/10/31 02:29:50;;;;;;;;;;;;;;;18.95;67.90;98952.50;2083807;28;21121;-61
2021/10/31 02:30:51;;;;;;;;;;;;;;;18.96;67.91;98954.19;2080278;28;19916;-61
2021/10/31 02:31:52;;;;;;;;;;;;;;;18.94;67.87;98948.06;2084683;28;20065;-61
2021/10/31 02:32:52;;;;;;;;;;;;;;;18.94;67.91;98945.34;2082993;28;19989;-61
2021/10/31 02:33:53;;;;;;;;;;;;;;;18.95;67.82;98949.75;2084222;28;19991;-61
2021/10/31 02:34:54;;;;;;;;;;;;;;;18.96;67.88;98937.78;2077785;28;19955;-61
2021/10/31 02:35:55;;;;;;;;;;;;;;;18.94;67.80;98937.16;2082046;28;19925;-60
2021/10/31 02:36:55;;;;;;;;;;;;;;;18.94;67.86;98929.81;2083608;28;19923;-61
2021/10/31 02:37:55;;;;;;;;;;;;;;;18.94;67.81;98928.97;2083983;28;19919;-61
2021/10/31 02:39:01;;;;;;;;;;;;;;;18.95;67.84;98933.38;2079374;28;20168;-62
2021/10/31 02:40:01;;;;;;;;;;;;;;;18.95;67.79;98925.19;2084767;28;20361;-61
2021/10/31 02:41:01;;;;;;;;;;;;;;;18.94;67.80;98918.88;2084004;28;19917;-62
2021/10/31 02:42:03;;;;;;;;;;;;;;;18.94;67.86;98923.50;2074918;28;20630;-61
2021/10/31 02:43:04;;;;;;;;;;;;;;;18.94;67.91;98915.31;2084307;28;19921;-61
2021/10/31 02:44:05;;;;;;;;;;;;;;;18.93;67.81;98914.44;2082099;28;20146;-61
2021/10/31 02:45:06;;;;;;;;;;;;;;;18.93;67.79;98919.88;2081134;28;20003;-61
2021/10/31 02:46:06;;;;;;;;;;;;;;;18.94;67.87;98915.31;2084660;28;19982;-61
2021/10/31 02:47:08;;;;;;;;;;;;;;;18.94;67.84;98918.03;2082628;28;19957;-61
2021/10/31 02:48:11;;;;;;;;;;;;;;;18.94;67.76;98918.03;2081093;28;19932;-61
2021/10/31 02:49:12;;;;;;;;;;;;;;;18.94;67.72;98915.31;2084738;28;20383;-61
2021/10/31 02:50:15;;;;;;;;;;;;;;;18.94;67.74;98912.56;2081955;28;20287;-61
2021/10/31 02:51:36;;;;;;;;;;;;;;;18.94;67.71;98918.03;2073352;28;20031;-62
2021/10/31 02:52:48;;;;;;;;;;;;;;;18.93;67.78;98910.84;2078270;28;19908;-61
2021/10/31 02:54:00;;;;;;;;;;;;;;;18.94;67.74;98918.03;2084721;28;20228;-61
2021/10/31 02:55:03;;;;;;;;;;;;;;;18.94;67.76;98912.56;2082369;28;19986;-61
2021/10/31 02:56:04;;;;;;;;;;;;;;;18.93;67.76;98906.22;2082878;28;19924;-61
2021/10/31 02:57:17;;;;;;;;;;;;;;;18.93;67.75;98908.97;2085268;28;19970;-61
2021/10/31 02:58:23;;;;;;;;;;;;;;;18.95;67.77;98914.25;2083479;28;20366;-61
2021/10/31 02:59:43;;;;;;;;;;;;;;;18.94;67.74;98904.38;2085551;28;19955;-60
2021/10/31 03:00:45;;;;;;;;;;;;;;;18.93;67.80;98902.66;2070990;28;19932;-61
2021/10/31 03:01:46;;;;;;;;;;;;;;;18.93;67.67;98905.38;2074109;28;19975;-61
2021/10/31 03:02:48;;;;;;;;;;;;;;;18.93;67.78;98895.31;2083124;28;20426;-61
2021/10/31 03:03:52;;;;;;;;;;;;;;;18.93;67.67;98897.19;2083439;28;19974;-61
2021/10/31 03:04:52;;;;;;;;;;;;;;;18.93;67.67;98895.31;2081305;28;19946;-61
2021/10/31 03:05:53;;;;;;;;;;;;;;;18.92;67.70;98893.63;2084290;28;20007;-61
2021/10/31 03:06:56;;;;;;;;;;;;;;;18.93;67.70;98891.75;2082399;28;19928;-61
2021/10/31 03:07:57;;;;;;;;;;;;;;;18.93;67.71;98892.56;2079775;28;20398;-61
2021/10/31 03:08:57;;;;;;;;;;;;;;;18.92;67.68;98887.31;2075038;28;19927;-60
2021/10/31 03:09:58;;;;;;;;;;;;;;;18.94;67.76;98890.72;2071794;28;19920;-60
2021/10/31 03:10:59;;;;;;;;;;;;;;;18.93;67.67;98887.13;2084092;28;19920;-61
2021/10/31 03:12:01;;;;;;;;;;;;;;;18.93;67.68;98892.56;2081526;28;19927;-61
2021/10/31 03:13:01;;;;;;;;;;;;;;;18.93;67.72;98889.00;2077144;28;20528;-61
2021/10/31 03:14:01;;;;;;;;;;;;;;;18.92;67.67;98888.16;2083393;28;20303;-61
2021/10/31 03:15:02;;;;;;;;;;;;;;;18.93;67.62;98883.53;2083710;28;20224;-61
2021/10/31 03:16:02;;;;;;;;;;;;;;;18.93;67.69;98891.75;2075461;28;19964;-61
2021/10/31 03:17:04;;;;;;;;;;;;;;;18.92;67.66;98876.41;2083609;28;19927;-61
2021/10/31 03:18:04;;;;;;;;;;;;;;;18.93;67.71;98878.09;2075115;28;19947;-61
2021/10/31 03:19:04;;;;;;;;;;;;;;;18.92;67.62;98877.25;2083769;28;19916;-61
2021/10/31 03:20:05;;;;;;;;;;;;;;;18.92;67.63;98871.78;2083161;28;19971;-61
2021/10/31 03:21:05;;;;;;;;;;;;;;;18.93;67.65;98869.88;2083553;28;19927;-61
2021/10/31 03:22:06;;;;;;;;;;;;;;;18.93;67.55;98872.63;2076299;28;19995;-60
2021/10/31 03:23:07;;;;;;;;;;;;;;;18.92;67.65;98871.78;2082792;28;19920;-60
2021/10/31 03:24:07;;;;;;;;;;;;;;;18.92;67.63;98874.50;2083508;28;19921;-60
2021/10/31 03:25:08;;;;;;;;;;;;;;;18.91;67.61;98870.06;2083203;28;19955;-60
2021/10/31 03:26:08;;;;;;;;;;;;;;;18.92;67.61;98866.31;2079119;28;20454;-60
2021/10/31 03:27:09;;;;;;;;;;;;;;;18.92;67.65;98865.47;2083591;28;20011;-61
2021/10/31 03:28:09;;;;;;;;;;;;;;;18.92;67.51;98862.75;2083324;28;19920;-60
2021/10/31 03:29:10;;;;;;;;;;;;;;;18.91;67.61;98859.13;2083324;28;20019;-64
2021/10/31 03:30:10;;;;;;;;;;;;;;;18.92;67.60;98851.81;2084065;28;19918;-65
2021/10/31 03:31:10;;;;;;;;;;;;;;;18.92;67.53;98855.38;2081224;28;19916;-65
2021/10/31 03:32:11;;;;;;;;;;;;;;;18.92;67.53;98854.56;2083467;28;19928;-64
2021/10/31 03:33:12;;;;;;;;;;;;;;;18.92;67.48;98843.63;2084009;28;20646;-65
2021/10/31 03:34:13;;;;;;;;;;;;;;;18.92;67.56;98846.34;2079013;28;19990;-65
2021/10/31 03:35:13;;;;;;;;;;;;;;;18.92;67.60;98838.16;2075981;28;19932;-65
2021/10/31 03:36:14;;;;;;;;;;;;;;;18.92;67.50;98846.34;2075335;28;19952;-65
2021/10/31 03:37:14;;;;;;;;;;;;;;;18.91;67.54;98844.63;2074332;28;20446;-65
2021/10/31 03:38:14;;;;;;;;;;;;;;;18.92;67.62;98840.91;2072919;28;19917;-65
2021/10/31 03:39:15;;;;;;;;;;;;;;;18.91;67.53;98841.91;2074392;28;20000;-65
2021/10/31 03:40:16;;;;;;;;;;;;;;;18.90;67.63;98841.06;2075790;28;19975;-64
2021/10/31 03:41:16;;;;;;;;;;;;;;;18.91;67.58;98839.19;2082560;28;19920;-65
2021/10/31 03:42:16;;;;;;;;;;;;;;;18.91;67.53;98841.91;2085122;28;19981;-65
2021/10/31 03:43:19;;;;;;;;;;;;;;;18.91;67.57;98845.47;2083201;28;20548;-65
2021/10/31 03:44:21;;;;;;;;;;;;;;;18.91;67.51;98836.44;2080559;28;19920;-65
2021/10/31 03:45:22;;;;;;;;;;;;;;;18.91;67.58;98836.44;2083144;28;19952;-65
2021/10/31 03:46:22;;;;;;;;;;;;;;;18.90;67.53;98835.59;2083043;28;19923;-65
2021/10/31 03:47:25;;;;;;;;;;;;;;;18.90;67.54;98835.59;2083755;28;19958;-65
2021/10/31 03:48:25;;;;;;;;;;;;;;;18.91;67.50;98830.97;2082971;28;19927;-65
2021/10/31 03:49:26;;;;;;;;;;;;;;;18.91;67.53;98831.81;2081782;28;19953;-65
2021/10/31 03:50:26;;;;;;;;;;;;;;;18.91;67.53;98825.53;2084184;28;19923;-64
2021/10/31 03:51:26;;;;;;;;;;;;;;;18.90;67.46;98823.84;2083055;28;19977;-64
2021/10/31 03:52:27;;;;;;;;;;;;;;;18.90;67.54;98827.41;2083072;28;19985;-65
2021/10/31 03:53:27;;;;;;;;;;;;;;;18.89;67.65;98812.06;2083759;28;20074;-65
2021/10/31 03:54:27;;;;;;;;;;;;;;;18.90;67.53;98813.75;2083065;28;21759;-65
2021/10/31 03:55:28;;;;;;;;;;;;;;;18.90;67.47;98818.38;2082425;28;20126;-65
2021/10/31 03:56:28;;;;;;;;;;;;;;;18.91;67.48;98809.13;2080241;28;20773;-65
2021/10/31 03:57:28;;;;;;;;;;;;;;;18.91;67.42;98809.13;2081591;28;20842;-65
2021/10/31 03:58:28;;;;;;;;;;;;;;;18.90;67.51;98812.91;2084157;28;19924;-65
2021/10/31 03:59:29;;;;;;;;;;;;;;;18.90;67.47;98811.03;2083309;28;19959;-65
2021/10/31 04:00:29;;;;;;;;;;;;;;;18.90;67.46;98811.03;2082151;28;19920;-65
2021/10/31 04:01:32;;;;;;;;;;;;;;;18.90;67.44;98807.44;2082925;28;20136;-65
2021/10/31 04:02:32;;;;;;;;;;;;;;;18.90;67.45;98802.84;2079576;28;19955;-65
2021/10/31 04:03:32;;;;;;;;;;;;;;;18.90;67.39;98804.72;2084448;28;20003;-65
2021/10/31 04:04:33;;;;;;;;;;;;;;;18.90;67.47;98812.91;2082083;28;19959;-65
2021/10/31 04:05:33;;;;;;;;;;;;;;;18.90;67.47;98796.53;2082131;28;19920;-65
2021/10/31 04:06:33;;;;;;;;;;;;;;;18.90;67.48;98799.25;2083979;28;20713;-65
2021/10/31 04:07:34;;;;;;;;;;;;;;;18.89;67.51;98789.34;2081881;28;19920;-65
2021/10/31 04:08:34;;;;;;;;;;;;;;;18.89;67.47;98790.22;2086071;28;20388;-65
2021/10/31 04:09:34;;;;;;;;;;;;;;;18.90;67.49;98793.81;2081975;28;20003;-65
2021/10/31 04:10:35;;;;;;;;;;;;;;;18.90;67.48;98785.59;2083402;28;19920;-65
2021/10/31 04:11:35;;;;;;;;;;;;;;;18.89;67.42;98784.75;2073304;28;19912;-65
2021/10/31 04:12:35;;;;;;;;;;;;;;;18.89;67.36;98792.09;2072582;28;19917;-65
2021/10/31 04:13:36;;;;;;;;;;;;;;;18.89;67.38;98783.88;2084237;28;19916;-65
2021/10/31 04:14:36;;;;;;;;;;;;;;;18.90;67.40;98788.34;2082323;28;19920;-65
2021/10/31 04:15:37;;;;;;;;;;;;;;;18.89;67.40;98792.09;2082590;28;19931;-65
2021/10/31 04:16:37;;;;;;;;;;;;;;;18.89;67.34;98800.28;2083430;28;20362;-65
2021/10/31 04:17:37;;;;;;;;;;;;;;;18.90;67.40;98802.00;2081910;28;19920;-65
2021/10/31 04:18:38;;;;;;;;;;;;;;;18.91;67.34;98800.94;2083466;28;19916;-65
2021/10/31 04:19:39;;;;;;;;;;;;;;;18.90;67.34;98804.72;2086864;28;20023;-65
2021/10/31 04:20:39;;;;;;;;;;;;;;;18.90;67.38;98802.00;2079813;28;20694;-65
2021/10/31 04:21:39;;;;;;;;;;;;;;;18.89;67.37;98798.41;2085912;28;19920;-64
2021/10/31 04:22:40;;;;;;;;;;;;;;;18.90;67.46;98802.00;2081977;28;19920;-65
2021/10/31 04:23:40;;;;;;;;;;;;;;;18.89;67.35;98790.22;2081468;28;19917;-65
2021/10/31 04:24:40;;;;;;;;;;;;;;;18.89;67.36;98789.34;2083056;28;21490;-63
2021/10/31 04:25:41;;;;;;;;;;;;;;;18.89;67.34;98795.69;2084097;28;19947;-63
2021/10/31 04:26:41;;;;;;;;;;;;;;;18.89;67.33;98798.41;2079290;28;19952;-65
2021/10/31 04:27:41;;;;;;;;;;;;;;;18.89;67.36;98797.53;2081719;28;19913;-64
2021/10/31 04:28:41;;;;;;;;;;;;;;;18.89;67.33;98789.34;2074523;28;20016;-64
2021/10/31 04:29:42;;;;;;;;;;;;;;;18.88;67.46;98790.41;2073479;28;19924;-64
2021/10/31 04:30:42;;;;;;;;;;;;;;;18.88;67.33;98793.13;2084168;28;19955;-64
2021/10/31 04:31:42;;;;;;;;;;;;;;;18.89;67.27;98789.34;2078153;28;19932;-64
2021/10/31 04:32:43;;;;;;;;;;;;;;;18.89;67.23;98789.34;2082156;28;19920;-64
2021/10/31 04:33:43;;;;;;;;;;;;;;;18.89;67.31;98789.34;2080266;28;19920;-63
2021/10/31 04:34:44;;;;;;;;;;;;;;;18.89;67.32;98792.09;2082638;28;20436;-64
2021/10/31 04:35:44;;;;;;;;;;;;;;;18.89;67.25;98789.34;2083612;28;19959;-64
2021/10/31 04:36:44;;;;;;;;;;;;;;;18.90;67.31;98793.81;2082136;28;19917;-64
2021/10/31 04:37:46;;;;;;;;;;;;;;;18.89;67.27;98789.34;2077480;28;19930;-66
2021/10/31 04:38:49;;;;;;;;;;;;;;;18.89;67.27;98783.88;2081727;28;20272;-64
2021/10/31 04:39:50;;;;;;;;;;;;;;;18.88;67.42;98788.50;2083003;28;20120;-65
2021/10/31 04:40:50;;;;;;;;;;;;;;;18.89;67.26;98789.34;2082948;28;19928;-64
2021/10/31 04:41:52;;;;;;;;;;;;;;;18.89;67.32;98783.88;2081769;28;19912;-65
2021/10/31 04:42:53;;;;;;;;;;;;;;;18.88;67.32;98787.66;2082613;28;20074;-65
2021/10/31 04:43:53;;;;;;;;;;;;;;;18.88;67.25;98787.66;2082996;28;19912;-65
2021/10/31 04:44:54;;;;;;;;;;;;;;;18.88;67.31;98785.78;2083102;28;19920;-65
2021/10/31 04:45:54;;;;;;;;;;;;;;;18.88;67.24;98784.94;2081748;28;20012;-65
2021/10/31 04:46:54;;;;;;;;;;;;;;;18.88;67.29;98783.06;2082658;28;20329;-64
2021/10/31 04:47:55;;;;;;;;;;;;;;;18.88;67.36;98782.22;2083005;28;19989;-65
2021/10/31 04:48:55;;;;;;;;;;;;;;;18.87;67.24;98785.97;2073759;28;20181;-65
2021/10/31 04:49:55;;;;;;;;;;;;;;;18.88;67.35;98782.22;2072638;28;19921;-64
2021/10/31 04:50:56;;;;;;;;;;;;;;;18.88;67.23;98782.22;2080602;28;19924;-64
2021/10/31 04:51:56;;;;;;;;;;;;;;;18.89;67.36;98778.44;2082696;28;19911;-64
2021/10/31 04:52:56;;;;;;;;;;;;;;;18.88;67.23;98782.22;2082381;28;19916;-64
2021/10/31 04:53:57;;;;;;;;;;;;;;;18.88;67.24;98776.75;2065381;28;20398;-64
2021/10/31 04:54:57;;;;;;;;;;;;;;;18.88;67.27;98771.28;2065571;28;20857;-65
2021/10/31 04:55:57;;;;;;;;;;;;;;;18.88;67.26;98776.75;2081747;28;20899;-64
2021/10/31 04:56:58;;;;;;;;;;;;;;;18.87;67.19;98775.06;2081155;28;20375;-64
2021/10/31 04:57:59;;;;;;;;;;;;;;;18.87;67.31;98773.16;2084312;28;19916;-64
2021/10/31 04:58:59;;;;;;;;;;;;;;;18.88;67.18;98768.56;2081722;28;19924;-64
2021/10/31 04:59:59;;;;;;;;;;;;;;;18.88;67.25;98771.28;2084080;28;20583;-65
2021/10/31 05:01:00;;;;;;;;;;;;;;;18.87;67.18;98767.72;2081754;28;19913;-65
2021/10/31 05:02:00;;;;;;;;;;;;;;;18.87;67.31;98777.78;2081704;28;19920;-64
2021/10/31 05:03:01;;;;;;;;;;;;;;;18.87;67.34;98770.44;2083899;28;19974;-65
2021/10/31 05:04:01;;;;;;;;;;;;;;;18.88;67.16;98765.81;2082135;28;19916;-64
2021/10/31 05:05:01;;;;;;;;;;;;;;;18.87;67.28;98772.31;2082486;28;20478;-65
2021/10/31 05:06:01;;;;;;;;;;;;;;;18.87;67.28;98766.88;2089689;28;19965;-65
2021/10/31 05:07:02;;;;;;;;;;;;;;;18.87;67.27;98769.59;2082027;28;19924;-64
2021/10/31 05:08:03;;;;;;;;;;;;;;;18.87;67.15;98769.59;2081793;28;19921;-65
2021/10/31 05:09:04;;;;;;;;;;;;;;;18.85;67.28;98770.59;2081431;28;19931;-64
2021/10/31 05:10:05;;;;;;;;;;;;;;;18.87;67.32;98766.88;2080798;28;20000;-64
2021/10/31 05:11:05;;;;;;;;;;;;;;;18.87;67.14;98770.44;2085088;28;20598;-65
2021/10/31 05:12:06;;;;;;;;;;;;;;;18.87;67.18;98769.59;2084773;28;19916;-64
2021/10/31 05:13:06;;;;;;;;;;;;;;;18.87;67.23;98766.88;2081851;28;20140;-65
2021/10/31 05:14:07;;;;;;;;;;;;;;;18.87;67.26;98769.59;2083808;28;20392;-64
2021/10/31 05:15:08;;;;;;;;;;;;;;;18.87;67.20;98761.41;2082158;28;20051;-65
2021/10/31 05:16:08;;;;;;;;;;;;;;;18.87;67.20;98761.41;2082537;28;19970;-64
2021/10/31 05:17:09;;;;;;;;;;;;;;;18.87;67.25;98755.94;2083425;28;19921;-65
2021/10/31 05:18:09;;;;;;;;;;;;;;;18.85;67.20;98759.69;2080929;28;19951;-64
2021/10/31 05:19:10;;;;;;;;;;;;;;;18.85;67.20;98748.75;2083136;28;19920;-64
2021/10/31 05:20:11;;;;;;;;;;;;;;;18.87;67.04;98753.22;2074195;28;20202;-65
2021/10/31 05:21:12;;;;;;;;;;;;;;;18.87;67.20;98761.41;2073165;28;20390;-64
2021/10/31 05:22:12;;;;;;;;;;;;;;;18.87;67.15;98753.22;2083608;28;19982;-65
2021/10/31 05:23:12;;;;;;;;;;;;;;;18.85;67.20;98751.50;2076488;28;19928;-65
2021/10/31 05:24:13;;;;;;;;;;;;;;;18.85;67.12;98751.50;2073828;28;20917;-65
2021/10/31 05:25:13;;;;;;;;;;;;;;;18.87;67.10;98750.47;2074828;28;20399;-65